Bayan-Ovoo, Mongolia
Current Conditions -  °F | °C
As of 7:30 PM on Wednesday 26 Nov 2014 (Local Time) from ZMUB Reporting Station
Clear Clear  
Wind Chill: -20°   Ceiling: Unl
Heat Index: -4°   Visibility: 6mi
Dew Point: -17°   Wind: 9mph
Humidity: 55%   Direction: 170°S
Pressure: 29.88"   Gusts: NA
Location:  47.78°N, 112.12°E
Report Text: ZMUB 261130Z 17004MPS CAVOK M20/M27 Q1012 NOSIG RMK QFE652.2 49
Loading
Personal Weather Stations






























Interactive Weather Map New forecast layout! Learn more

10-Day Weather Forecast

Advertisements
Track Severe Weather on mobile